首页
METAR-TAF:

METAR-TAF

机场 :

Shelby, 北卡罗来纳州, 美国

纬度: 35-15N, 经度: 081-36W, 海拔: 258米

当前天气观测

该预报发布于13分钟前的14:20 UTC
风速4节,风向东南
温度 14°C
湿度 72%
气压 1027 hPa
能見度: 16.1公里
散云层高于3600英尺

METAR: KEHO 221420Z AUTO 13004KT 10SM SCT036 14/09 A3034 RMK AO2 T01400092

时间: 10:33 (14:33 UTC)


TAF: 丢失

超过4000个机场的气象观测和天气预报(METAR&TAF报告)。

可查询的气象台以黄色和红色小点在地图上表示。

将鼠标移到小点上方,可查看气象台名称。

然后点击查看天气观测和预报。

如需切换地图:点击带黑十字的绿色按钮放大地图;点击带横线的绿色按钮缩小地图;或者点击绿色箭头查看邻近地区的地图。


METAR-TAF: